createdAt,value
2019-05-12T00:00:04.234Z,0.80
2019-05-12T00:02:34.454Z,0.90
2019-05-12T00:05:04.546Z,0.83
2019-05-12T00:07:34.491Z,1.03
2019-05-12T00:10:04.691Z,0.97
2019-05-12T00:12:34.578Z,1.07
2019-05-12T00:15:05.174Z,1.23
2019-05-12T00:17:38.539Z,1.27
2019-05-12T00:20:08.617Z,0.97
2019-05-12T00:22:44.113Z,1.10
2019-05-12T00:25:14.586Z,1.20
2019-05-12T00:27:43.831Z,1.00
2019-05-12T00:30:33.851Z,0.70
2019-05-12T00:33:04.657Z,0.90
2019-05-12T00:35:34.395Z,1.13
2019-05-12T00:38:04.885Z,1.00
2019-05-12T00:40:38.841Z,1.07
2019-05-12T00:43:08.959Z,1.00
2019-05-12T00:45:39.088Z,1.10
2019-05-12T00:48:09.777Z,0.90
2019-05-12T00:50:39.644Z,2.40
2019-05-12T00:53:09.651Z,0.93
2019-05-12T00:55:39.444Z,0.97
2019-05-12T00:58:09.596Z,1.00
2019-05-12T01:00:41.100Z,0.93
2019-05-12T01:03:10.882Z,0.80
2019-05-12T01:05:40.785Z,0.80
2019-05-12T01:08:15.083Z,0.90
2019-05-12T01:10:44.976Z,1.10
2019-05-12T01:13:14.843Z,1.10
2019-05-12T01:15:44.620Z,1.20
2019-05-12T01:18:15.173Z,0.90
2019-05-12T01:20:47.859Z,1.00
2019-05-12T01:23:19.311Z,0.80
2019-05-12T01:25:50.821Z,0.90
2019-05-12T01:28:21.297Z,1.07
2019-05-12T01:30:51.637Z,1.00
2019-05-12T01:33:21.316Z,0.80
2019-05-12T01:35:51.270Z,0.80
2019-05-12T01:38:20.649Z,1.10
2019-05-12T01:40:50.358Z,0.80
2019-05-12T01:43:21.271Z,0.80
2019-05-12T01:45:51.429Z,0.90
2019-05-12T01:48:21.373Z,1.33
2019-05-12T01:50:52.890Z,1.10
2019-05-12T01:53:22.830Z,0.80
2019-05-12T01:55:53.126Z,0.80
2019-05-12T01:58:23.093Z,1.27
2019-05-12T02:00:53.425Z,0.73
2019-05-12T02:03:24.341Z,1.00
2019-05-12T02:05:57.848Z,0.60
2019-05-12T02:08:34.137Z,1.10
2019-05-12T02:11:21.848Z,0.90
2019-05-12T02:13:51.714Z,0.80
2019-05-12T02:16:22.609Z,0.93
2019-05-12T02:18:52.536Z,1.83
2019-05-12T02:21:22.381Z,1.10
2019-05-12T02:23:52.581Z,1.20
2019-05-12T02:26:22.404Z,0.93
2019-05-12T02:28:52.409Z,1.23
2019-05-12T02:31:22.544Z,1.00
2019-05-12T02:33:55.031Z,0.87
2019-05-12T02:36:25.773Z,1.10
2019-05-12T02:38:56.767Z,0.97
2019-05-12T02:41:26.706Z,0.90
2019-05-12T02:43:56.857Z,1.00
2019-05-12T02:46:27.165Z,1.10
2019-05-12T02:48:57.409Z,1.00
2019-05-12T02:51:27.310Z,1.00
2019-05-12T02:53:57.650Z,1.00
2019-05-12T02:56:28.226Z,1.17
2019-05-12T02:58:58.926Z,1.10
2019-05-12T03:01:29.945Z,1.07
2019-05-12T03:04:05.418Z,0.90
2019-05-12T03:06:36.092Z,1.17
2019-05-12T03:09:08.238Z,1.10
2019-05-12T03:11:38.008Z,1.00
2019-05-12T03:14:07.792Z,1.00
2019-05-12T03:16:38.059Z,1.10
2019-05-12T03:19:07.953Z,1.00
2019-05-12T03:21:38.334Z,1.00
2019-05-12T03:24:08.282Z,0.90
2019-05-12T03:26:38.873Z,0.87
2019-05-12T03:29:09.096Z,1.20
2019-05-12T03:31:41.309Z,1.00
2019-05-12T03:34:18.574Z,1.07
2019-05-12T03:36:50.649Z,1.00
2019-05-12T03:39:16.606Z,0.90
2019-05-12T03:41:47.249Z,0.90
2019-05-12T03:44:17.565Z,0.90
2019-05-12T03:46:47.209Z,0.80
2019-05-12T03:49:17.742Z,1.10
2019-05-12T03:51:48.657Z,0.90
2019-05-12T03:54:19.542Z,0.97
2019-05-12T03:56:49.474Z,1.03
2019-05-12T03:59:19.153Z,1.30
2019-05-12T04:01:49.018Z,0.80
2019-05-12T04:04:19.827Z,1.10
2019-05-12T04:06:50.042Z,0.97
2019-05-12T04:09:20.373Z,1.00
2019-05-12T04:11:50.073Z,1.23
2019-05-12T04:14:19.797Z,0.90
2019-05-12T04:16:49.825Z,0.83
2019-05-12T04:19:19.705Z,0.80
2019-05-12T04:21:49.932Z,0.80
2019-05-12T04:24:21.011Z,0.77
2019-05-12T04:26:50.937Z,0.80
2019-05-12T04:29:24.798Z,1.03
2019-05-12T04:31:54.471Z,0.90
2019-05-12T04:34:25.260Z,0.83
2019-05-12T04:36:55.581Z,0.90
2019-05-12T04:39:26.169Z,0.97
2019-05-12T04:41:56.628Z,0.90
2019-05-12T04:44:26.377Z,0.80
2019-05-12T04:46:56.609Z,0.93
2019-05-12T04:49:27.091Z,0.80
2019-05-12T04:51:57.595Z,0.80
2019-05-12T04:54:28.601Z,0.87
2019-05-12T04:56:59.004Z,0.90
2019-05-12T04:59:28.898Z,0.80
2019-05-12T05:01:58.577Z,0.80
2019-05-12T05:04:30.530Z,0.80
2019-05-12T05:07:00.874Z,0.90
2019-05-12T05:09:34.984Z,0.90
2019-05-12T05:12:04.733Z,1.00
2019-05-12T05:14:35.078Z,1.07
2019-05-12T05:17:06.084Z,1.20
2019-05-12T05:19:37.560Z,1.03
2019-05-12T05:22:06.939Z,1.20
2019-05-12T05:24:37.409Z,1.30
2019-05-12T05:27:07.242Z,1.40
2019-05-12T05:29:37.371Z,1.30
2019-05-12T05:32:07.790Z,1.60
2019-05-12T05:34:38.164Z,1.70
2019-05-12T05:37:08.065Z,2.00
2019-05-12T05:39:47.892Z,3.00
2019-05-12T05:42:09.525Z,2.90
2019-05-12T05:44:40.504Z,3.23
2019-05-12T05:47:10.309Z,3.40
2019-05-12T05:49:39.988Z,3.13
2019-05-12T05:52:10.461Z,3.43
2019-05-12T05:54:40.583Z,3.03
2019-05-12T05:57:10.958Z,3.03
2019-05-12T05:59:41.385Z,2.60
2019-05-12T06:02:13.772Z,2.70
2019-05-12T06:04:45.464Z,2.90
2019-05-12T06:07:14.476Z,2.10
2019-05-12T06:09:44.989Z,3.03
2019-05-12T06:12:14.620Z,2.80
2019-05-12T06:14:48.771Z,2.43
2019-05-12T06:17:17.625Z,2.90
2019-05-12T06:19:47.594Z,2.43
2019-05-12T06:22:23.435Z,2.87
2019-05-12T06:24:56.954Z,2.63
2019-05-12T06:27:24.617Z,2.73
2019-05-12T06:30:00.955Z,2.53
2019-05-12T06:32:28.395Z,2.33
2019-05-12T06:35:02.259Z,2.43
2019-05-12T06:37:33.896Z,2.83
2019-05-12T06:40:05.261Z,2.17
2019-05-12T06:42:36.757Z,2.10
2019-05-12T06:45:07.417Z,2.50
2019-05-12T06:47:39.252Z,3.03
2019-05-12T06:50:10.312Z,3.00
2019-05-12T06:52:46.753Z,2.77
2019-05-12T06:55:14.406Z,2.77
2019-05-12T06:57:45.893Z,3.07
2019-05-12T07:00:15.421Z,2.90
2019-05-12T07:02:52.301Z,3.20
2019-05-12T07:05:16.505Z,3.67
2019-05-12T07:07:47.909Z,3.30
2019-05-12T07:10:35.577Z,3.90
2019-05-12T07:12:58.879Z,3.43
2019-05-12T07:15:23.369Z,4.23
2019-05-12T07:17:58.345Z,3.90
2019-05-12T07:20:29.214Z,3.73
2019-05-12T07:22:59.938Z,3.80
2019-05-12T07:25:31.791Z,3.87
2019-05-12T07:28:07.255Z,4.13
2019-05-12T07:30:35.079Z,4.10
2019-05-12T07:33:05.530Z,3.73
2019-05-12T07:35:36.186Z,4.40
2019-05-12T07:38:06.048Z,2.80
2019-05-12T07:40:37.777Z,4.00
2019-05-12T07:43:10.046Z,4.07
2019-05-12T07:45:39.627Z,3.80
2019-05-12T07:48:10.595Z,3.87
2019-05-12T07:50:43.204Z,3.50
2019-05-12T07:53:14.486Z,3.53
2019-05-12T07:55:47.553Z,4.00
2019-05-12T07:58:19.106Z,3.93
2019-05-12T08:00:56.247Z,4.77
2019-05-12T08:03:21.668Z,3.67
2019-05-12T08:05:57.474Z,4.63
2019-05-12T08:08:26.626Z,4.20
2019-05-12T08:10:56.718Z,4.10
2019-05-12T08:13:31.144Z,3.63
2019-05-12T08:15:58.317Z,4.40
2019-05-12T08:18:30.484Z,4.13
2019-05-12T08:21:03.574Z,5.00
2019-05-12T08:23:53.367Z,3.97
2019-05-12T08:26:23.952Z,3.93
2019-05-12T08:28:53.899Z,3.90
2019-05-12T08:31:32.049Z,4.30
2019-05-12T08:33:55.765Z,4.37
2019-05-12T08:36:25.514Z,3.83
2019-05-12T08:38:55.293Z,4.40
2019-05-12T08:41:25.009Z,4.40
2019-05-12T08:43:58.357Z,4.57
2019-05-12T08:46:27.610Z,5.50
2019-05-12T08:49:02.152Z,4.90
2019-05-12T08:51:29.890Z,5.50
2019-05-12T08:54:07.963Z,4.70
2019-05-12T08:56:33.221Z,5.03
2019-05-12T08:59:04.381Z,4.50
2019-05-12T09:01:34.520Z,4.73
2019-05-12T09:04:06.593Z,4.57
2019-05-12T09:06:35.921Z,4.30
2019-05-12T09:09:07.821Z,4.13
2019-05-12T09:11:56.828Z,4.80
2019-05-12T09:14:27.544Z,4.83
2019-05-12T09:17:02.752Z,4.60
2019-05-12T09:19:29.873Z,5.10
2019-05-12T09:22:05.463Z,5.40
2019-05-12T09:24:31.097Z,5.00
2019-05-12T09:27:06.987Z,4.43
2019-05-12T09:29:34.123Z,3.57
2019-05-12T09:32:07.943Z,4.57
2019-05-12T09:34:36.425Z,4.83
2019-05-12T09:37:06.157Z,4.73
2019-05-12T09:39:42.589Z,4.87
2019-05-12T09:42:11.197Z,3.93
2019-05-12T09:44:41.416Z,4.10
2019-05-12T09:47:21.947Z,4.37
2019-05-12T09:49:44.472Z,4.37
2019-05-12T09:52:22.725Z,4.20
2019-05-12T09:54:46.493Z,3.87
2019-05-12T09:57:16.021Z,4.00
2019-05-12T09:59:57.289Z,3.90
2019-05-12T10:02:21.081Z,4.10
2019-05-12T10:04:56.378Z,3.50
2019-05-12T10:07:25.241Z,3.80
2019-05-12T10:09:58.927Z,3.20
2019-05-12T10:12:29.686Z,3.70
2019-05-12T10:14:59.396Z,3.73
2019-05-12T10:17:30.275Z,3.30
2019-05-12T10:20:01.571Z,3.47
2019-05-12T10:22:39.914Z,3.00
2019-05-12T10:25:10.185Z,2.90
2019-05-12T10:27:40.074Z,2.43
2019-05-12T10:30:15.575Z,2.87
2019-05-12T10:32:43.643Z,2.30
2019-05-12T10:35:20.790Z,2.70
2019-05-12T10:37:47.414Z,2.37
2019-05-12T10:40:17.400Z,2.50
2019-05-12T10:42:49.505Z,2.77
2019-05-12T10:45:23.471Z,2.63
2019-05-12T10:47:53.149Z,2.60
2019-05-12T10:50:23.499Z,2.33
2019-05-12T10:52:53.843Z,2.83
2019-05-12T10:55:23.959Z,2.80
2019-05-12T10:58:01.615Z,2.50
2019-05-12T11:00:26.947Z,2.33
2019-05-12T11:03:01.542Z,3.23
2019-05-12T11:05:29.014Z,2.57
2019-05-12T11:08:06.400Z,2.70
2019-05-12T11:10:32.209Z,2.77
2019-05-12T11:13:05.816Z,2.40
2019-05-12T11:15:34.306Z,2.43
2019-05-12T11:18:10.392Z,2.80
2019-05-12T11:20:40.469Z,2.60
2019-05-12T11:23:10.565Z,2.77
2019-05-12T11:25:40.963Z,2.70
2019-05-12T11:28:11.180Z,2.37
2019-05-12T11:30:43.523Z,2.77
2019-05-12T11:33:12.974Z,2.17
2019-05-12T11:35:43.615Z,2.20
2019-05-12T11:38:13.661Z,2.10
2019-05-12T11:40:43.894Z,2.08
2019-05-12T11:43:14.525Z,2.10
2019-05-12T11:45:44.951Z,2.00
2019-05-12T11:48:17.437Z,2.08
2019-05-12T11:50:51.241Z,2.00
2019-05-12T11:53:21.840Z,1.90
2019-05-12T11:55:54.336Z,2.40
2019-05-12T11:58:24.240Z,2.10
2019-05-12T12:00:58.696Z,1.77
2019-05-12T12:03:29.079Z,2.08
2019-05-12T12:05:58.929Z,2.03
2019-05-12T12:08:35.258Z,1.63
2019-05-12T12:11:00.051Z,1.72
2019-05-12T12:13:30.206Z,1.80
2019-05-12T12:16:06.043Z,1.80
2019-05-12T12:18:33.789Z,1.63
2019-05-12T12:21:07.507Z,1.90
2019-05-12T12:23:40.796Z,1.90
2019-05-12T12:26:08.473Z,1.90
2019-05-12T12:28:38.455Z,2.02
2019-05-12T12:31:10.501Z,1.60
2019-05-12T12:33:41.085Z,1.92
2019-05-12T12:36:14.519Z,1.80
2019-05-12T12:38:44.401Z,1.55
2019-05-12T12:41:15.097Z,1.90
2019-05-12T12:43:45.469Z,1.90
2019-05-12T12:46:24.358Z,1.80
2019-05-12T12:48:54.624Z,1.70
2019-05-12T12:51:24.637Z,1.73
2019-05-12T12:53:55.153Z,1.72
2019-05-12T12:56:29.787Z,1.50
2019-05-12T12:59:04.145Z,1.57
2019-05-12T13:01:32.335Z,1.47
2019-05-12T13:04:04.541Z,1.70
2019-05-12T13:06:34.570Z,1.70
2019-05-12T13:09:09.051Z,1.63
2019-05-12T13:11:37.740Z,1.60
2019-05-12T13:14:07.658Z,1.57
2019-05-12T13:16:38.129Z,1.50
2019-05-12T13:19:16.761Z,1.50
2019-05-12T13:21:41.093Z,1.30
2019-05-12T13:24:11.117Z,1.55
2019-05-12T13:26:43.604Z,1.95
2019-05-12T13:29:13.511Z,1.45
2019-05-12T13:31:46.343Z,1.42
2019-05-12T13:34:16.072Z,1.30
2019-05-12T13:36:46.577Z,1.60
2019-05-12T13:39:17.020Z,1.85
2019-05-12T13:41:50.379Z,1.30
2019-05-12T13:44:18.213Z,1.10
2019-05-12T13:46:53.663Z,1.30
2019-05-12T13:49:20.261Z,1.23
2019-05-12T13:51:50.401Z,1.27
2019-05-12T13:54:26.045Z,1.20
2019-05-12T13:56:54.314Z,1.60
2019-05-12T13:59:25.517Z,1.40
2019-05-12T14:01:55.630Z,1.37
2019-05-12T14:04:27.827Z,2.13
2019-05-12T14:06:57.410Z,1.40
2019-05-12T14:09:28.502Z,1.53
2019-05-12T14:11:58.873Z,1.20
2019-05-12T14:14:29.350Z,1.30
2019-05-12T14:16:59.562Z,1.30
2019-05-12T14:19:35.442Z,1.37
2019-05-12T14:22:04.148Z,1.20
2019-05-12T14:27:05.009Z,1.40
2019-05-12T14:29:36.289Z,1.40
2019-05-12T14:32:06.238Z,1.40
2019-05-12T14:34:36.059Z,1.50
2019-05-12T14:37:10.258Z,1.30
2019-05-12T14:39:40.072Z,1.20
2019-05-12T14:42:09.649Z,0.93
2019-05-12T14:44:44.822Z,1.00
2019-05-12T14:47:19.100Z,1.30
2019-05-12T14:49:45.534Z,1.20
2019-05-12T14:52:15.273Z,1.10
2019-05-12T14:54:45.190Z,1.20
2019-05-12T14:57:15.126Z,1.10
2019-05-12T14:59:44.557Z,1.40
2019-05-12T15:02:19.448Z,1.30
2019-05-12T15:04:47.254Z,1.53
2019-05-12T15:07:18.610Z,1.17
2019-05-12T15:09:48.461Z,2.00
2019-05-12T15:12:18.161Z,1.50
2019-05-12T17:15:59.988Z,1.00
2019-05-12T17:18:28.534Z,1.00
2019-05-12T17:20:59.378Z,0.80
2019-05-12T17:23:29.945Z,0.80
2019-05-12T17:25:59.627Z,0.87
2019-05-12T17:28:34.317Z,0.80
2019-05-12T17:31:04.023Z,0.80
2019-05-12T17:33:39.393Z,0.70
2019-05-12T17:36:12.810Z,0.90
2019-05-12T17:38:44.242Z,0.70
2019-05-12T17:41:17.857Z,1.00
2019-05-12T17:43:56.706Z,0.87
2019-05-12T17:46:23.370Z,0.80
2019-05-12T17:48:53.977Z,1.00
2019-05-12T17:51:26.696Z,1.27
2019-05-12T17:53:56.412Z,1.00
2019-05-12T17:56:36.677Z,0.90
2019-05-12T17:58:59.454Z,0.80
2019-05-12T18:01:31.320Z,0.90
2019-05-12T18:04:04.101Z,0.90
2019-05-12T18:06:34.100Z,0.90
2019-05-12T18:09:09.204Z,0.70
2019-05-12T18:11:37.349Z,0.80
2019-05-12T18:14:08.535Z,0.80
2019-05-12T18:16:38.381Z,1.00
2019-05-12T18:19:14.618Z,1.30
2019-05-12T18:21:44.916Z,1.50
2019-05-12T18:24:14.135Z,1.93
2019-05-12T18:26:47.145Z,1.60
2019-05-12T18:29:16.433Z,1.77
2019-05-12T18:31:46.065Z,1.93
2019-05-12T18:34:19.882Z,2.27
2019-05-12T18:36:54.287Z,1.90
2019-05-12T18:39:20.614Z,1.77
2019-05-12T18:41:50.454Z,1.90
2019-05-12T18:44:26.235Z,1.97
2019-05-12T18:46:53.903Z,2.10
2019-05-12T18:49:24.073Z,2.67
2019-05-12T18:51:55.613Z,2.20
2019-05-12T18:54:26.230Z,2.03
2019-05-12T18:57:02.141Z,2.10
2019-05-12T18:59:28.797Z,1.90
2019-05-12T19:01:58.825Z,2.10
2019-05-12T19:04:29.278Z,2.20
2019-05-12T19:07:00.150Z,2.00
2019-05-12T19:09:30.554Z,1.87
2019-05-12T19:12:00.357Z,2.10
2019-05-12T19:14:38.823Z,1.90
2019-05-12T19:17:03.538Z,1.93
2019-05-12T19:19:34.685Z,1.70
2019-05-12T19:22:09.474Z,1.73
2019-05-12T19:24:37.060Z,2.10
2019-05-12T19:27:10.450Z,2.17
2019-05-12T19:29:45.855Z,2.10
2019-05-12T19:32:10.974Z,2.00
2019-05-12T19:34:43.348Z,2.00
2019-05-12T19:37:14.305Z,2.10
2019-05-12T19:39:44.905Z,2.00
2019-05-12T19:42:19.335Z,2.13
2019-05-12T19:44:47.354Z,1.90
2019-05-12T19:47:21.349Z,1.73
2019-05-12T19:49:53.572Z,2.17
2019-05-12T19:52:24.384Z,1.60
2019-05-12T19:54:54.790Z,1.67
2019-05-12T19:57:26.204Z,1.63
2019-05-12T19:59:55.968Z,1.57
2019-05-12T20:02:26.622Z,1.37
2019-05-12T20:04:56.913Z,1.10
2019-05-12T20:07:27.522Z,1.00
2019-05-12T20:10:00.608Z,1.00
2019-05-12T20:12:29.649Z,1.33
2019-05-12T20:15:00.144Z,1.00
2019-05-12T20:17:30.561Z,0.97
2019-05-12T20:20:00.949Z,1.20
2019-05-12T20:22:33.363Z,1.50
2019-05-12T20:25:04.353Z,1.70
2019-05-12T20:27:34.640Z,1.90
2019-05-12T20:30:08.853Z,2.10
2019-05-12T20:32:36.529Z,1.60
2019-05-12T20:35:06.602Z,1.50
2019-05-12T20:37:44.137Z,1.47
2019-05-12T20:40:10.317Z,1.40
2019-05-12T20:42:48.294Z,1.50
2019-05-12T20:45:13.561Z,1.20
2019-05-12T20:47:45.373Z,1.40
2019-05-12T20:50:16.018Z,1.00
2019-05-12T20:52:51.229Z,0.90
2019-05-12T20:55:17.369Z,1.00
2019-05-12T20:57:56.066Z,1.10
2019-05-12T21:00:19.081Z,1.00
2019-05-12T21:02:49.529Z,0.77
2019-05-12T21:05:20.724Z,1.20
2019-05-12T21:07:55.635Z,1.00
2019-05-12T21:10:26.461Z,0.80
2019-05-12T21:12:54.285Z,0.80
2019-05-12T21:15:27.740Z,0.90
2019-05-12T21:18:02.714Z,0.80
2019-05-12T21:20:26.576Z,0.70
2019-05-12T21:22:56.284Z,0.83
2019-05-12T21:25:27.205Z,0.90
2019-05-12T21:28:02.533Z,0.80
2019-05-12T21:30:29.087Z,0.73
2019-05-12T21:33:01.492Z,1.00
2019-05-12T21:35:40.429Z,1.13
2019-05-12T21:38:04.152Z,0.93
2019-05-12T21:40:35.071Z,0.80
2019-05-12T21:43:04.950Z,0.80
2019-05-12T21:45:34.901Z,0.93
2019-05-12T21:48:04.987Z,0.83
2019-05-12T21:50:38.115Z,0.70
2019-05-12T21:53:10.058Z,0.77
2019-05-12T21:55:38.730Z,0.80
2019-05-12T21:58:12.060Z,0.80
2019-05-12T22:00:44.951Z,0.90
2019-05-12T22:03:15.995Z,0.70
2019-05-12T22:05:51.453Z,1.00
2019-05-12T22:08:23.103Z,0.90
2019-05-12T22:10:54.215Z,0.70
2019-05-12T22:13:24.061Z,0.73
2019-05-12T22:15:57.157Z,0.90
2019-05-12T22:18:26.335Z,0.70
2019-05-12T22:21:01.207Z,0.80
2019-05-12T22:23:27.897Z,0.90
2019-05-12T22:26:00.077Z,0.80
2019-05-12T22:28:29.373Z,0.83
2019-05-12T22:30:59.989Z,0.80
2019-05-12T22:33:29.828Z,1.00
2019-05-12T22:36:06.170Z,0.90
2019-05-12T22:38:34.050Z,0.83
2019-05-12T22:41:04.587Z,0.80
2019-05-12T22:43:41.093Z,0.70
2019-05-12T22:46:07.242Z,1.00
2019-05-12T22:48:40.480Z,0.70
2019-05-12T22:51:17.606Z,1.10
2019-05-12T22:53:40.737Z,0.90
2019-05-12T22:56:17.100Z,1.10
2019-05-12T22:58:44.134Z,0.83
2019-05-12T23:01:14.504Z,0.90
2019-05-12T23:03:51.295Z,0.80
2019-05-12T23:06:23.567Z,0.80
2019-05-12T23:08:49.397Z,0.80
2019-05-12T23:11:23.807Z,0.90
2019-05-12T23:13:53.347Z,1.30
2019-05-12T23:16:26.112Z,0.90
2019-05-12T23:18:55.405Z,0.90
2019-05-12T23:21:27.030Z,0.93
2019-05-12T23:24:00.576Z,1.10
2019-05-12T23:26:35.514Z,0.90
2019-05-12T23:29:04.064Z,0.80
2019-05-12T23:31:34.144Z,0.80
2019-05-12T23:34:06.396Z,0.90
2019-05-12T23:36:39.198Z,0.80
2019-05-12T23:39:08.507Z,0.93
2019-05-12T23:41:38.301Z,1.20
2019-05-12T23:44:08.744Z,0.87
2019-05-12T23:46:39.013Z,0.97
2019-05-12T23:49:09.524Z,0.97
2019-05-12T23:51:40.261Z,0.90
2019-05-12T23:54:10.477Z,1.00
2019-05-12T23:56:40.949Z,0.87
2019-05-12T23:59:13.464Z,1.27
